Terminal Aerodrome Forecast
Issued by NWS

Home | Current Version | Previous Version | Text Only | Print | Product List | Glossary On
Versions: 1 2 3 4 5 6 7 8 9 10 11 12 13
000
FTUS43 KGLD 182320
TAFMCK
TAF
KMCK 182320Z 1900/1924 14007KT P6SM OVC200
     FM190800 17006KT P6SM BKN200 WS020/20035KT
     FM191500 17008KT P6SM BKN150
     FM191800 19015G25KT P6SM BKN150=

USA.gov is the U.S. government's official web portal to all federal, state and local government web resources and services.